Berit — ZDHX2 — position and weather

sailwx.info

Track history (hours):
 
Tides and Currents Weather Stations Pressure Air Temp Water Temp Dewpoint Dewpoint Depression Visibility Wind Speed Wind Dir Waves Ship Positions

Berit

Last reported at 2015-Aug-30 17:33 UTC. Time now 2015-Aug-30 18:07 UTC.
Position N 54°12' E 011°59'.

Length 83 m; draft 3.5 m.

Type: Cargo ship. MMSI: 236386000.

Date/timePositionNaut miles runAvg speedWind from/ knotsBaromVisibWave heightAir tempDewpointWater temp
2015-Aug-30 17:33N 54°12' E 011°59'0 0.0
2015-Aug-30 16:21N 54°12' E 011°59'0 0.0
2015-Aug-30 15:27N 54°12' E 011°59'4 4.9
2015-Aug-30 14:33N 54°11' E 012°06'4609.0
2015-Aug-30 14:33N 54°12' E 011°59'0 0.0
2015-Aug-30 13:21N 54°13' E 011°59'0 0.0
2015-Aug-30 12:33N 54°13' E 011°59'0 0.0
2015-Aug-30 11:33N 54°13' E 011°59'0 0.0
2015-Aug-30 10:27N 54°13' E 011°59'0 0.0
2015-Aug-30 09:33N 54°13' E 011°59'4 4.4
2015-Aug-30 08:33N 54°11' E 012°06'2 2.1
2015-Aug-30 07:33N 54°09' E 012°07'0 0.0
2015-Aug-30 06:33N 54°09' E 012°08'0 0.0
2015-Aug-30 05:33N 54°09' E 012°08'0 0.0
2015-Aug-30 04:33N 54°09' E 012°07'0 0.0
2015-Aug-30 03:33N 54°09' E 012°07'0 0.0
2015-Aug-30 02:21N 54°09' E 012°07'0 0.0
2015-Aug-30 01:33N 54°09' E 012°07'0 0.0
2015-Aug-30 00:30N 54°09' E 012°08'0 0.0
2015-Aug-29 23:33N 54°09' E 012°08'0 0.0
2015-Aug-29 22:33N 54°09' E 012°08'0 0.0
2015-Aug-29 21:33N 54°09' E 012°07'0 0.0
2015-Aug-29 20:33N 54°09' E 012°07'0 0.0
2015-Aug-29 19:33N 54°09' E 012°07'0 0.0
2015-Aug-29 18:33N 54°09' E 012°07'0 0.0
2015-Aug-29 17:33N 54°09' E 012°07'0 0.0
2015-Aug-29 16:33N 54°09' E 012°08'0 0.0
2015-Aug-29 15:27N 54°09' E 012°08'0 0.0
2015-Aug-29 14:33N 54°09' E 012°07'0 0.0
2015-Aug-29 13:33N 54°09' E 012°08'0 0.0
2015-Aug-29 12:33N 54°09' E 012°07'0 0.0
2015-Aug-29 11:30N 54°09' E 012°07'0 0.0
2015-Aug-29 10:27N 54°09' E 012°08'0 0.0
2015-Aug-29 09:30N 54°09' E 012°07'0 0.0
2015-Aug-29 08:33N 54°09' E 012°08'0 0.0
2015-Aug-29 05:30N 54°09' E 012°08'0 0.0
2015-Aug-29 04:27N 54°09' E 012°07'0 0.0
2015-Aug-29 03:27N 54°09' E 012°08'0 0.0
2015-Aug-29 02:09N 54°09' E 012°08'0 0.0
2015-Aug-29 01:33N 54°09' E 012°07'0 0.0
2015-Aug-28 23:33N 54°09' E 012°08'0 0.0
2015-Aug-28 22:33N 54°09' E 012°08'0 0.0
2015-Aug-28 21:33N 54°09' E 012°07'0 0.0
2015-Aug-28 20:21N 54°09' E 012°07'0 0.0
2015-Aug-28 19:30N 54°09' E 012°07'0 0.0
2015-Aug-28 18:21N 54°09' E 012°07'0 0.0
2015-Aug-28 17:33N 54°09' E 012°08'0 0.0
2015-Aug-28 16:33N 54°09' E 012°08'0 0.0
2015-Aug-28 15:27N 54°09' E 012°07'0 0.0
2015-Aug-28 14:24N 54°09' E 012°07'0 0.0
2015-Aug-28 13:33N 54°09' E 012°07'0 0.0
2015-Aug-28 11:33N 54°09' E 012°07'0 0.0
2015-Aug-28 10:24N 54°09' E 012°08'0 0.0
2015-Aug-28 08:33N 54°09' E 012°08'0 0.0
2015-Aug-28 07:15N 54°09' E 012°08'0 0.0
2015-Aug-28 06:15N 54°09' E 012°08'0 0.0
2015-Aug-28 04:12N 54°09' E 012°08'0 0.0
2015-Aug-28 03:33N 54°09' E 012°08'0 0.0
2015-Aug-28 02:27N 54°09' E 012°08'0 0.0
2015-Aug-28 01:06N 54°09' E 012°08'0 0.0
2015-Aug-28 00:33N 54°09' E 012°08'0 0.0
2015-Aug-27 23:21N 54°09' E 012°08'0 0.0
2015-Aug-27 21:33N 54°09' E 012°08'0 0.0
2015-Aug-27 20:27N 54°09' E 012°08'0 0.0
2015-Aug-27 19:33N 54°09' E 012°08'0 0.0
2015-Aug-27 18:30N 54°09' E 012°08'0 0.0
2015-Aug-27 17:30N 54°09' E 012°08'4 3.9
2015-Aug-27 16:33N 54°12' E 012°05'9 9.0
2015-Aug-27 15:31N 54°20' E 011°56'1010.0
2015-Aug-27 14:33N 54°25' E 011°42'1010.0
2015-Aug-27 13:33N 54°30' E 011°27'1010.5
2015-Aug-27 12:33N 54°34' E 011°10'14 9.7
2015-Aug-27 11:09N 54°34' E 010°47'6 9.7
2015-Aug-27 10:33N 54°34' E 010°37'10 9.8
2015-Aug-27 09:33N 54°30' E 010°21'9 9.4
2015-Aug-27 08:33N 54°23' E 010°11'2 2.2
2015-Aug-27 07:33N 54°22' E 010°08'5 5.0
2015-Aug-27 06:33N 54°21' E 009°59'6 6.0
2015-Aug-27 05:33N 54°22' E 009°49'7 7.4
2015-Aug-27 04:33N 54°17' E 009°39'17 7.9
2015-Aug-27 02:28N 54°05' E 009°19'8 8.8
2015-Aug-27 01:33N 53°58' E 009°15'2 1.9
2015-Aug-27 00:34N 53°56' E 009°13'4 3.8
2015-Aug-26 23:34N 53°54' E 009°09'2 2.3
2015-Aug-26 22:33N 53°53' E 009°05'9 9.4
2015-Aug-26 21:34N 53°50' E 008°50'1010.0
2015-Aug-26 20:33N 53°57' E 008°37'1010.3
2015-Aug-26 19:33N 53°59' E 008°20'10 9.5
2015-Aug-26 18:33N 53°58' E 008°04'18 9.2
2015-Aug-26 16:33N 53°55' E 007°33'10 9.2
2015-Aug-26 15:28N 53°52' E 007°17'9 9.2
2015-Aug-26 14:32N 53°50' E 007°03'9 9.4
2015-Aug-26 13:31N 53°48' E 006°47'21 8.8
2015-Aug-26 11:10N 53°42' E 006°13'6 8.7
2015-Aug-26 10:32N 53°41' E 006°04'9 8.8
2015-Aug-26 09:33N 53°38' E 005°51'9 8.9
2015-Aug-26 08:33N 53°35' E 005°37'9 8.8
2015-Aug-26 07:33N 53°33' E 005°23'9 9.1
2015-Aug-26 06:33N 53°30' E 005°08'10 9.5
2015-Aug-26 05:33N 53°26' E 004°53'37 9.1
2015-Aug-26 01:33N 52°56' E 004°19'10 9.6
2015-Aug-26 00:33N 52°47' E 004°11'10 9.9
2015-Aug-25 23:33N 52°39' E 004°02'10 9.8
2015-Aug-25 22:31N 52°30' E 003°54'9 9.7
2015-Aug-25 21:33N 52°21' E 003°52'9 9.3
2015-Aug-25 20:33N 52°12' E 003°54'9 9.3
2015-Aug-25 19:33N 52°02' E 003°55'9 9.3
2015-Aug-25 18:33N 51°58' E 004°08'9 8.9
2015-Aug-25 17:33N 51°54' E 004°21'0 0.1
2015-Aug-25 16:31N 51°54' E 004°21'0 0.0
2015-Aug-25 15:31N 51°54' E 004°21'0 0.0
2015-Aug-25 14:31N 51°54' E 004°21'0 0.0
2015-Aug-25 13:28N 51°54' E 004°21'0 0.0
2015-Aug-25 12:31N 51°54' E 004°21'0 0.0
2015-Aug-25 11:28N 51°54' E 004°21'0 0.0
2015-Aug-25 10:31N 51°54' E 004°21'0 0.0
2015-Aug-25 09:28N 51°54' E 004°21'0 0.0
2015-Aug-25 08:28N 51°54' E 004°21'0 0.0
2015-Aug-25 07:31N 51°54' E 004°21'0 0.0
2015-Aug-25 06:28N 51°54' E 004°21'0 0.0
2015-Aug-25 05:31N 51°54' E 004°21'0 0.0
2015-Aug-25 04:31N 51°54' E 004°21'0 0.0
2015-Aug-25 03:31N 51°54' E 004°21'0 0.0
2015-Aug-25 02:28N 51°54' E 004°21'2 2.7
2015-Aug-25 01:33N 51°54' E 004°17'9 8.6
2015-Aug-25 00:33N 51°59' E 004°06'10 9.7
2015-Aug-24 23:33N 51°60' E 003°50'1010.1
2015-Aug-24 22:33N 51°57' E 003°34'1210.2
2015-Aug-24 21:24N 51°50' E 003°19'9 9.0
2015-Aug-24 20:21N 51°40' E 003°19'810.2
2015-Aug-24 19:33N 51°33' E 003°25'9 9.0
2015-Aug-24 18:33N 51°26' E 003°35'5 4.3
2015-Aug-24 17:28N 51°27' E 003°42'0 0.0
2015-Aug-24 16:28N 51°27' E 003°42'0 0.0
2015-Aug-24 15:31N 51°27' E 003°42'0 0.0
2015-Aug-24 14:22N 51°27' E 003°42'0 0.0
2015-Aug-24 13:28N 51°27' E 003°42'0 0.0
2015-Aug-24 12:31N 51°27' E 003°42'0 0.0
2015-Aug-24 11:31N 51°27' E 003°42'0 0.0
2015-Aug-24 10:28N 51°27' E 003°42'0 0.0
2015-Aug-24 09:28N 51°27' E 003°42'0 0.0
2015-Aug-24 08:28N 51°27' E 003°42'0 0.0
2015-Aug-24 07:31N 51°27' E 003°42'0 0.0
2015-Aug-24 06:31N 51°27' E 003°42'0 0.0
2015-Aug-24 05:31N 51°27' E 003°42'0 0.0
2015-Aug-24 04:28N 51°27' E 003°42'0 0.0
2015-Aug-24 03:31N 51°27' E 003°42'0 0.0
2015-Aug-24 02:28N 51°27' E 003°42'0 0.0
2015-Aug-24 01:28N 51°27' E 003°42'0 0.0
2015-Aug-24 00:22N 51°27' E 003°42'0 0.0
2015-Aug-23 23:31N 51°27' E 003°42'3 2.8
2015-Aug-23 22:33N 51°26' E 003°38'7 7.0
2015-Aug-23 21:34N 51°30' E 003°28'9 8.2
2015-Aug-23 20:24N 51°38' E 003°21'7 7.4
2015-Aug-23 19:31N 51°44' E 003°17'25 1.9
2015-Aug-23 06:16N 52°03' E 002°49'4 6.0
2015-Aug-23 05:33N 52°06' E 002°53'7 6.5
2015-Aug-23 04:30N 52°12' E 002°58'23 7.8
2015-Aug-23 01:34N 52°30' E 003°23'33 7.4
2015-Aug-22 21:07N 52°55' E 003°57'10 6.4
2015-Aug-22 19:32N 53°02' E 004°09'7 7.0
2015-Aug-22 18:32N 53°07' E 004°18'46 7.5
2015-Aug-22 12:27N 53°49' E 004°48'7 6.7
2015-Aug-22 11:28N 53°55' E 004°52'6 6.7
2015-Aug-22 10:33N 54°01' E 004°55'7 6.8
2015-Aug-22 09:31N 54°07' E 004°60'7 7.0
2015-Aug-22 08:30N 54°13' E 005°06'86 7.2
2015-Aug-21 20:33N 55°26' E 006°26'7 7.0
2015-Aug-21 19:33N 55°31' E 006°33'8 6.9
2015-Aug-21 18:25N 55°38' E 006°41'6 6.8
2015-Aug-21 17:34N 55°43' E 006°47'10 6.7
2015-Aug-21 16:06N 55°50' E 006°58'107 6.7
2015-Aug-21 00:06N 57°22' E 008°38'4 6.6
2015-Aug-20 23:33N 57°26' E 008°41'27 6.7
2015-Aug-20 19:34N 57°51' E 008°59'7 7.3
2015-Aug-20 18:32N 57°58' E 009°03'7 7.1
2015-Aug-20 17:33N 58°05' E 009°07'  
Track history (hours):
 
Tides and Currents Weather Stations Pressure Air Temp Water Temp Dewpoint Dewpoint Depression Visibility Wind Speed Wind Dir Waves Ship Positions

Berit

Last reported at 2015-Aug-30 17:33 UTC. Time now 2015-Aug-30 18:07 UTC.
Position N 54°12' E 011°59'.

Length 83 m; draft 3.5 m.

Type: Cargo ship. MMSI: 236386000.

Date/timePositionNaut miles runAvg speedWind from/ knotsBaromVisibWave heightAir tempDewpointWater temp
2015-Aug-30 17:33N 54°12' E 011°59'0 0.0
2015-Aug-30 16:21N 54°12' E 011°59'0 0.0
2015-Aug-30 15:27N 54°12' E 011°59'4 4.9
2015-Aug-30 14:33N 54°11' E 012°06'4609.0
2015-Aug-30 14:33N 54°12' E 011°59'0 0.0
2015-Aug-30 13:21N 54°13' E 011°59'0 0.0
2015-Aug-30 12:33N 54°13' E 011°59'0 0.0
2015-Aug-30 11:33N 54°13' E 011°59'0 0.0
2015-Aug-30 10:27N 54°13' E 011°59'0 0.0
2015-Aug-30 09:33N 54°13' E 011°59'4 4.4
2015-Aug-30 08:33N 54°11' E 012°06'2 2.1
2015-Aug-30 07:33N 54°09' E 012°07'0 0.0
2015-Aug-30 06:33N 54°09' E 012°08'0 0.0
2015-Aug-30 05:33N 54°09' E 012°08'0 0.0
2015-Aug-30 04:33N 54°09' E 012°07'0 0.0
2015-Aug-30 03:33N 54°09' E 012°07'0 0.0
2015-Aug-30 02:21N 54°09' E 012°07'0 0.0
2015-Aug-30 01:33N 54°09' E 012°07'0 0.0
2015-Aug-30 00:30N 54°09' E 012°08'0 0.0
2015-Aug-29 23:33N 54°09' E 012°08'0 0.0
2015-Aug-29 22:33N 54°09' E 012°08'0 0.0
2015-Aug-29 21:33N 54°09' E 012°07'0 0.0
2015-Aug-29 20:33N 54°09' E 012°07'0 0.0
2015-Aug-29 19:33N 54°09' E 012°07'0 0.0
2015-Aug-29 18:33N 54°09' E 012°07'0 0.0
2015-Aug-29 17:33N 54°09' E 012°07'0 0.0
2015-Aug-29 16:33N 54°09' E 012°08'0 0.0
2015-Aug-29 15:27N 54°09' E 012°08'0 0.0
2015-Aug-29 14:33N 54°09' E 012°07'0 0.0
2015-Aug-29 13:33N 54°09' E 012°08'0 0.0
2015-Aug-29 12:33N 54°09' E 012°07'0 0.0
2015-Aug-29 11:30N 54°09' E 012°07'0 0.0
2015-Aug-29 10:27N 54°09' E 012°08'0 0.0
2015-Aug-29 09:30N 54°09' E 012°07'0 0.0
2015-Aug-29 08:33N 54°09' E 012°08'0 0.0
2015-Aug-29 05:30N 54°09' E 012°08'0 0.0
2015-Aug-29 04:27N 54°09' E 012°07'0 0.0
2015-Aug-29 03:27N 54°09' E 012°08'0 0.0
2015-Aug-29 02:09N 54°09' E 012°08'0 0.0
2015-Aug-29 01:33N 54°09' E 012°07'0 0.0
2015-Aug-28 23:33N 54°09' E 012°08'0 0.0
2015-Aug-28 22:33N 54°09' E 012°08'0 0.0
2015-Aug-28 21:33N 54°09' E 012°07'0 0.0
2015-Aug-28 20:21N 54°09' E 012°07'0 0.0
2015-Aug-28 19:30N 54°09' E 012°07'0 0.0
2015-Aug-28 18:21N 54°09' E 012°07'0 0.0
2015-Aug-28 17:33N 54°09' E 012°08'0 0.0
2015-Aug-28 16:33N 54°09' E 012°08'0 0.0
2015-Aug-28 15:27N 54°09' E 012°07'0 0.0
2015-Aug-28 14:24N 54°09' E 012°07'0 0.0
2015-Aug-28 13:33N 54°09' E 012°07'0 0.0
2015-Aug-28 11:33N 54°09' E 012°07'0 0.0
2015-Aug-28 10:24N 54°09' E 012°08'0 0.0
2015-Aug-28 08:33N 54°09' E 012°08'0 0.0
2015-Aug-28 07:15N 54°09' E 012°08'0 0.0
2015-Aug-28 06:15N 54°09' E 012°08'0 0.0
2015-Aug-28 04:12N 54°09' E 012°08'0 0.0
2015-Aug-28 03:33N 54°09' E 012°08'0 0.0
2015-Aug-28 02:27N 54°09' E 012°08'0 0.0
2015-Aug-28 01:06N 54°09' E 012°08'0 0.0
2015-Aug-28 00:33N 54°09' E 012°08'0 0.0
2015-Aug-27 23:21N 54°09' E 012°08'0 0.0
2015-Aug-27 21:33N 54°09' E 012°08'0 0.0
2015-Aug-27 20:27N 54°09' E 012°08'0 0.0
2015-Aug-27 19:33N 54°09' E 012°08'0 0.0
2015-Aug-27 18:30N 54°09' E 012°08'0 0.0
2015-Aug-27 17:30N 54°09' E 012°08'4 3.9
2015-Aug-27 16:33N 54°12' E 012°05'9 9.0
2015-Aug-27 15:31N 54°20' E 011°56'1010.0
2015-Aug-27 14:33N 54°25' E 011°42'1010.0
2015-Aug-27 13:33N 54°30' E 011°27'1010.5
2015-Aug-27 12:33N 54°34' E 011°10'14 9.7
2015-Aug-27 11:09N 54°34' E 010°47'6 9.7
2015-Aug-27 10:33N 54°34' E 010°37'10 9.8
2015-Aug-27 09:33N 54°30' E 010°21'9 9.4
2015-Aug-27 08:33N 54°23' E 010°11'2 2.2
2015-Aug-27 07:33N 54°22' E 010°08'5 5.0
2015-Aug-27 06:33N 54°21' E 009°59'6 6.0
2015-Aug-27 05:33N 54°22' E 009°49'7 7.4
2015-Aug-27 04:33N 54°17' E 009°39'17 7.9
2015-Aug-27 02:28N 54°05' E 009°19'8 8.8
2015-Aug-27 01:33N 53°58' E 009°15'2 1.9
2015-Aug-27 00:34N 53°56' E 009°13'4 3.8
2015-Aug-26 23:34N 53°54' E 009°09'2 2.3
2015-Aug-26 22:33N 53°53' E 009°05'9 9.4
2015-Aug-26 21:34N 53°50' E 008°50'1010.0
2015-Aug-26 20:33N 53°57' E 008°37'1010.3
2015-Aug-26 19:33N 53°59' E 008°20'10 9.5
2015-Aug-26 18:33N 53°58' E 008°04'18 9.2
2015-Aug-26 16:33N 53°55' E 007°33'10 9.2
2015-Aug-26 15:28N 53°52' E 007°17'9 9.2
2015-Aug-26 14:32N 53°50' E 007°03'9 9.4
2015-Aug-26 13:31N 53°48' E 006°47'21 8.8
2015-Aug-26 11:10N 53°42' E 006°13'6 8.7
2015-Aug-26 10:32N 53°41' E 006°04'9 8.8
2015-Aug-26 09:33N 53°38' E 005°51'9 8.9
2015-Aug-26 08:33N 53°35' E 005°37'9 8.8
2015-Aug-26 07:33N 53°33' E 005°23'9 9.1
2015-Aug-26 06:33N 53°30' E 005°08'10 9.5
2015-Aug-26 05:33N 53°26' E 004°53'37 9.1
2015-Aug-26 01:33N 52°56' E 004°19'10 9.6
2015-Aug-26 00:33N 52°47' E 004°11'10 9.9
2015-Aug-25 23:33N 52°39' E 004°02'10 9.8
2015-Aug-25 22:31N 52°30' E 003°54'9 9.7
2015-Aug-25 21:33N 52°21' E 003°52'9 9.3
2015-Aug-25 20:33N 52°12' E 003°54'9 9.3
2015-Aug-25 19:33N 52°02' E 003°55'9 9.3
2015-Aug-25 18:33N 51°58' E 004°08'9 8.9
2015-Aug-25 17:33N 51°54' E 004°21'0 0.1
2015-Aug-25 16:31N 51°54' E 004°21'0 0.0
2015-Aug-25 15:31N 51°54' E 004°21'0 0.0
2015-Aug-25 14:31N 51°54' E 004°21'0 0.0
2015-Aug-25 13:28N 51°54' E 004°21'0 0.0
2015-Aug-25 12:31N 51°54' E 004°21'0 0.0
2015-Aug-25 11:28N 51°54' E 004°21'0 0.0
2015-Aug-25 10:31N 51°54' E 004°21'0 0.0
2015-Aug-25 09:28N 51°54' E 004°21'0 0.0
2015-Aug-25 08:28N 51°54' E 004°21'0 0.0
2015-Aug-25 07:31N 51°54' E 004°21'0 0.0
2015-Aug-25 06:28N 51°54' E 004°21'0 0.0
2015-Aug-25 05:31N 51°54' E 004°21'0 0.0
2015-Aug-25 04:31N 51°54' E 004°21'0 0.0
2015-Aug-25 03:31N 51°54' E 004°21'0 0.0
2015-Aug-25 02:28N 51°54' E 004°21'2 2.7
2015-Aug-25 01:33N 51°54' E 004°17'9 8.6
2015-Aug-25 00:33N 51°59' E 004°06'10 9.7
2015-Aug-24 23:33N 51°60' E 003°50'1010.1
2015-Aug-24 22:33N 51°57' E 003°34'1210.2
2015-Aug-24 21:24N 51°50' E 003°19'9 9.0
2015-Aug-24 20:21N 51°40' E 003°19'810.2
2015-Aug-24 19:33N 51°33' E 003°25'9 9.0
2015-Aug-24 18:33N 51°26' E 003°35'5 4.3
2015-Aug-24 17:28N 51°27' E 003°42'0 0.0
2015-Aug-24 16:28N 51°27' E 003°42'0 0.0
2015-Aug-24 15:31N 51°27' E 003°42'0 0.0
2015-Aug-24 14:22N 51°27' E 003°42'0 0.0
2015-Aug-24 13:28N 51°27' E 003°42'0 0.0
2015-Aug-24 12:31N 51°27' E 003°42'0 0.0
2015-Aug-24 11:31N 51°27' E 003°42'0 0.0
2015-Aug-24 10:28N 51°27' E 003°42'0 0.0
2015-Aug-24 09:28N 51°27' E 003°42'0 0.0
2015-Aug-24 08:28N 51°27' E 003°42'0 0.0
2015-Aug-24 07:31N 51°27' E 003°42'0 0.0
2015-Aug-24 06:31N 51°27' E 003°42'0 0.0
2015-Aug-24 05:31N 51°27' E 003°42'0 0.0
2015-Aug-24 04:28N 51°27' E 003°42'0 0.0
2015-Aug-24 03:31N 51°27' E 003°42'0 0.0
2015-Aug-24 02:28N 51°27' E 003°42'0 0.0
2015-Aug-24 01:28N 51°27' E 003°42'0 0.0
2015-Aug-24 00:22N 51°27' E 003°42'0 0.0
2015-Aug-23 23:31N 51°27' E 003°42'3 2.8
2015-Aug-23 22:33N 51°26' E 003°38'7 7.0
2015-Aug-23 21:34N 51°30' E 003°28'9 8.2
2015-Aug-23 20:24N 51°38' E 003°21'7 7.4
2015-Aug-23 19:31N 51°44' E 003°17'25 1.9
2015-Aug-23 06:16N 52°03' E 002°49'4 6.0
2015-Aug-23 05:33N 52°06' E 002°53'7 6.5
2015-Aug-23 04:30N 52°12' E 002°58'23 7.8
2015-Aug-23 01:34N 52°30' E 003°23'33 7.4
2015-Aug-22 21:07N 52°55' E 003°57'10 6.4
2015-Aug-22 19:32N 53°02' E 004°09'7 7.0
2015-Aug-22 18:32N 53°07' E 004°18'46 7.5
2015-Aug-22 12:27N 53°49' E 004°48'7 6.7
2015-Aug-22 11:28N 53°55' E 004°52'6 6.7
2015-Aug-22 10:33N 54°01' E 004°55'7 6.8
2015-Aug-22 09:31N 54°07' E 004°60'7 7.0
2015-Aug-22 08:30N 54°13' E 005°06'86 7.2
2015-Aug-21 20:33N 55°26' E 006°26'7 7.0
2015-Aug-21 19:33N 55°31' E 006°33'8 6.9
2015-Aug-21 18:25N 55°38' E 006°41'6 6.8
2015-Aug-21 17:34N 55°43' E 006°47'10 6.7
2015-Aug-21 16:06N 55°50' E 006°58'107 6.7
2015-Aug-21 00:06N 57°22' E 008°38'4 6.6
2015-Aug-20 23:33N 57°26' E 008°41'27 6.7
2015-Aug-20 19:34N 57°51' E 008°59'7 7.3
2015-Aug-20 18:32N 57°58' E 009°03'7 7.1
2015-Aug-20 17:33N 58°05' E 009°07'  

Dump ship's entire track history